createdAt,value
2022-11-02T00:01:19.683Z,37.25
2022-11-02T00:03:47.938Z,36.68
2022-11-02T00:06:15.768Z,36.66
2022-11-02T00:08:43.611Z,36.65
2022-11-02T00:11:12.905Z,37.16
2022-11-02T00:13:40.688Z,36.90
2022-11-02T00:16:11.327Z,37.09
2022-11-02T00:18:39.669Z,36.84
2022-11-02T00:21:07.593Z,36.97
2022-11-02T00:23:35.727Z,36.98
2022-11-02T00:26:04.101Z,37.54
2022-11-02T00:28:33.360Z,37.34
2022-11-02T00:31:01.172Z,37.52
2022-11-02T00:33:28.946Z,37.79
2022-11-02T00:35:57.099Z,37.92
2022-11-02T00:38:25.128Z,37.76
2022-11-02T00:40:52.854Z,37.44
2022-11-02T00:43:20.662Z,37.96
2022-11-02T00:45:49.842Z,37.84
2022-11-02T00:48:17.687Z,37.86
2022-11-02T00:50:45.462Z,37.66
2022-11-02T00:53:14.147Z,37.65
2022-11-02T00:55:51.320Z,37.97
2022-11-02T00:58:19.243Z,37.85
2022-11-02T01:00:47.311Z,37.63
2022-11-02T01:03:16.691Z,37.48
2022-11-02T01:05:44.578Z,38.03
2022-11-02T01:08:12.732Z,38.03
2022-11-02T01:10:44.082Z,37.77
2022-11-02T01:13:15.273Z,38.00
2022-11-02T01:15:43.394Z,37.62
2022-11-02T01:18:11.240Z,37.93
2022-11-02T01:20:40.422Z,37.73
2022-11-02T01:23:08.398Z,37.83
2022-11-02T01:25:36.400Z,37.83
2022-11-02T01:28:05.063Z,38.04
2022-11-02T01:30:33.814Z,37.95
2022-11-02T01:33:01.758Z,38.03
2022-11-02T01:35:29.547Z,37.57
2022-11-02T01:37:58.717Z,37.79
2022-11-02T01:40:26.687Z,37.98
2022-11-02T01:42:54.608Z,38.01
2022-11-02T01:45:22.395Z,37.77
2022-11-02T01:47:50.262Z,37.88
2022-11-02T01:50:21.883Z,38.21
2022-11-02T01:52:51.681Z,38.15
2022-11-02T01:55:23.849Z,38.17
2022-11-02T01:57:57.457Z,38.03
2022-11-02T02:00:25.551Z,38.15
2022-11-02T02:02:57.799Z,37.90
2022-11-02T02:05:26.667Z,37.98
2022-11-02T02:07:56.596Z,37.84
2022-11-02T02:10:26.011Z,38.06
2022-11-02T02:12:53.979Z,37.78
2022-11-02T02:15:25.448Z,37.95
2022-11-02T02:17:59.721Z,37.66
2022-11-02T02:20:47.548Z,38.05
2022-11-02T02:23:34.256Z,38.15
2022-11-02T02:26:46.227Z,38.14
2022-11-02T02:29:22.025Z,38.27
2022-11-02T02:31:59.018Z,37.85
2022-11-02T02:34:35.529Z,38.22
2022-11-02T02:37:10.644Z,38.16
2022-11-02T02:39:44.281Z,38.06
2022-11-02T02:42:21.009Z,38.31
2022-11-02T02:44:55.380Z,38.18
2022-11-02T02:47:28.899Z,38.13
2022-11-02T02:50:06.834Z,37.99
2022-11-02T02:52:37.450Z,37.67
2022-11-02T02:55:08.414Z,37.80
2022-11-02T02:57:38.093Z,38.11
2022-11-02T03:00:14.752Z,37.67
2022-11-02T03:03:00.802Z,37.96
2022-11-02T03:05:32.470Z,38.14
2022-11-02T03:08:06.825Z,38.29
2022-11-02T03:10:43.281Z,37.73
2022-11-02T03:13:23.211Z,37.64
2022-11-02T03:15:59.727Z,38.17
2022-11-02T03:18:37.267Z,38.05
2022-11-02T03:21:13.396Z,37.82
2022-11-02T03:23:49.028Z,37.54
2022-11-02T03:26:24.358Z,37.60
2022-11-02T03:29:02.202Z,37.57
2022-11-02T03:31:37.383Z,37.84
2022-11-02T03:34:15.522Z,37.57
2022-11-02T03:36:49.465Z,37.98
2022-11-02T03:39:21.613Z,37.65
2022-11-02T03:41:51.973Z,38.12
2022-11-02T03:44:24.644Z,37.70
2022-11-02T03:47:00.751Z,38.11
2022-11-02T03:49:36.375Z,37.95
2022-11-02T03:52:09.807Z,38.33
2022-11-02T03:54:45.852Z,37.75
2022-11-02T03:57:22.480Z,37.86
2022-11-02T03:59:51.239Z,37.78
2022-11-02T04:02:21.079Z,37.63
2022-11-02T04:04:51.281Z,38.06
2022-11-02T04:07:25.732Z,37.34
2022-11-02T04:09:53.801Z,37.59
2022-11-02T04:12:39.568Z,37.84
2022-11-02T04:15:09.902Z,37.75
2022-11-02T04:17:57.344Z,37.83
2022-11-02T04:20:26.073Z,37.88
2022-11-02T04:23:12.746Z,37.73
2022-11-02T04:25:43.765Z,37.89
2022-11-02T04:28:14.224Z,38.03
2022-11-02T04:30:58.839Z,37.77
2022-11-02T04:33:33.477Z,37.95
2022-11-02T04:36:08.422Z,37.86
2022-11-02T04:38:42.241Z,37.90
2022-11-02T04:41:42.794Z,38.14
2022-11-02T04:44:29.254Z,37.75
2022-11-02T04:47:13.928Z,37.82
2022-11-02T04:49:43.523Z,37.79
2022-11-02T04:52:16.170Z,37.79
2022-11-02T04:54:49.547Z,37.95
2022-11-02T04:57:18.760Z,37.96
2022-11-02T04:59:46.759Z,38.00
2022-11-02T05:02:14.998Z,38.24
2022-11-02T05:04:45.781Z,37.93
2022-11-02T05:07:15.160Z,38.29
2022-11-02T05:09:43.314Z,38.33
2022-11-02T05:12:13.769Z,37.97
2022-11-02T05:14:41.733Z,37.93
2022-11-02T05:17:09.544Z,38.30
2022-11-02T05:19:38.820Z,38.20
2022-11-02T05:22:08.242Z,37.85
2022-11-02T05:24:36.247Z,38.17
2022-11-02T05:27:05.959Z,38.26
2022-11-02T05:29:36.922Z,37.94
2022-11-02T05:32:05.390Z,38.33
2022-11-02T05:34:34.001Z,37.86
2022-11-02T05:37:01.907Z,38.00
2022-11-02T05:39:31.382Z,37.76
2022-11-02T05:41:59.626Z,38.45
2022-11-02T05:44:27.467Z,38.00
2022-11-02T05:46:55.379Z,38.27
2022-11-02T05:49:23.172Z,37.87
2022-11-02T05:51:51.002Z,38.13
2022-11-02T05:54:18.826Z,37.69
2022-11-02T05:56:48.189Z,38.12
2022-11-02T05:59:16.090Z,37.79
2022-11-02T06:01:44.203Z,38.11
2022-11-02T06:04:12.105Z,38.21
2022-11-02T06:06:40.041Z,38.02
2022-11-02T06:09:07.921Z,38.05
2022-11-02T06:11:36.032Z,38.16
2022-11-02T06:14:05.443Z,37.74
2022-11-02T06:16:33.371Z,37.56
2022-11-02T06:19:01.434Z,37.56
2022-11-02T06:21:31.057Z,37.77
2022-11-02T06:23:59.718Z,37.61
2022-11-02T06:26:27.658Z,37.94
2022-11-02T06:28:55.590Z,37.80
2022-11-02T06:31:25.949Z,37.56
2022-11-02T06:33:53.848Z,37.62
2022-11-02T06:36:21.730Z,37.69
2022-11-02T06:38:49.638Z,37.91
2022-11-02T06:41:18.138Z,38.00
2022-11-02T06:43:46.094Z,37.80
2022-11-02T06:46:13.986Z,37.93
2022-11-02T06:48:43.471Z,38.15
2022-11-02T06:51:11.505Z,37.88
2022-11-02T06:53:39.433Z,38.20
2022-11-02T06:56:08.129Z,38.35
2022-11-02T06:58:35.940Z,38.36
2022-11-02T07:01:53.237Z,37.97
2022-11-02T08:29:36.854Z,38.85
2022-11-02T08:32:04.845Z,39.13
2022-11-02T08:34:32.617Z,39.23
2022-11-02T08:37:00.511Z,38.74
2022-11-02T08:39:28.832Z,38.90
2022-11-02T08:41:56.760Z,39.18
2022-11-02T08:44:24.639Z,39.18
2022-11-02T08:49:26.596Z,38.91
2022-11-02T08:51:54.413Z,38.77
2022-11-02T08:54:22.402Z,38.81
2022-11-02T08:56:50.167Z,38.09
2022-11-02T08:59:18.047Z,38.51
2022-11-02T09:01:45.927Z,38.30
2022-11-02T09:04:15.281Z,38.39
2022-11-02T09:06:43.084Z,38.38
2022-11-02T09:09:11.210Z,38.31
2022-11-02T09:11:39.372Z,37.78
2022-11-02T09:14:07.854Z,38.30
2022-11-02T09:16:41.046Z,38.27
2022-11-02T09:19:09.545Z,38.18
2022-11-02T09:21:38.847Z,38.00
2022-11-02T09:24:07.349Z,37.27
2022-11-02T09:26:35.114Z,37.24
2022-11-02T09:29:03.151Z,37.51
2022-11-02T09:31:31.341Z,36.91
2022-11-02T09:33:59.191Z,37.14
2022-11-02T09:36:27.051Z,37.07
2022-11-02T09:38:56.279Z,36.41
2022-11-02T09:41:32.047Z,36.06
2022-11-02T09:44:07.818Z,36.32
2022-11-02T09:46:40.671Z,35.86
2022-11-02T09:49:15.961Z,36.08
2022-11-02T09:51:47.570Z,35.94
2022-11-02T09:54:20.469Z,35.61
2022-11-02T09:56:50.455Z,36.12
2022-11-02T09:59:21.100Z,36.35
2022-11-02T10:01:56.852Z,35.31
2022-11-02T10:04:54.570Z,35.60
2022-11-02T10:07:34.005Z,34.72
2022-11-02T10:10:10.064Z,35.03
2022-11-02T10:12:47.095Z,35.35
2022-11-02T10:15:19.692Z,35.00
2022-11-02T10:17:53.655Z,35.28
2022-11-02T10:20:27.076Z,34.36
2022-11-02T10:22:59.452Z,34.91
2022-11-02T10:25:28.690Z,34.84
2022-11-02T10:28:04.640Z,34.52
2022-11-02T10:30:33.404Z,34.59
2022-11-02T10:33:01.272Z,34.99
2022-11-02T10:35:51.320Z,33.89
2022-11-02T10:38:39.356Z,34.21
2022-11-02T10:41:21.995Z,33.78
2022-11-02T10:44:04.373Z,33.70
2022-11-02T10:46:46.468Z,33.37
2022-11-02T10:49:27.148Z,34.09
2022-11-02T10:51:55.220Z,34.23
2022-11-02T10:54:29.326Z,34.11
2022-11-02T10:57:12.827Z,33.35
2022-11-02T10:59:40.870Z,33.71
2022-11-02T11:02:13.445Z,32.67
2022-11-02T11:04:41.604Z,34.00
2022-11-02T11:07:16.108Z,33.26
2022-11-02T11:09:49.700Z,32.53
2022-11-02T11:12:22.431Z,32.91
2022-11-02T11:20:36.351Z,32.96
2022-11-02T11:23:19.293Z,32.73
2022-11-02T11:25:58.944Z,32.23
2022-11-02T11:28:31.284Z,32.33
2022-11-02T11:31:11.475Z,32.00
2022-11-02T11:33:49.445Z,32.14
2022-11-02T11:39:02.054Z,32.01
2022-11-02T11:41:30.562Z,32.39
2022-11-02T11:44:01.256Z,32.14
2022-11-02T11:46:41.154Z,31.74
2022-11-02T11:49:31.033Z,31.83
2022-11-02T11:52:05.325Z,31.95
2022-11-02T11:54:33.943Z,31.87
2022-11-02T11:57:23.607Z,31.32
2022-11-02T11:59:55.290Z,32.04
2022-11-02T12:02:25.549Z,31.73
2022-11-02T12:05:00.213Z,31.14
2022-11-02T12:08:05.505Z,31.03
2022-11-02T12:10:48.710Z,31.24
2022-11-02T12:13:28.133Z,31.59
2022-11-02T12:16:14.009Z,31.60
2022-11-02T12:19:04.631Z,30.98
2022-11-02T12:21:59.253Z,30.97
2022-11-02T12:24:44.863Z,31.11
2022-11-02T12:27:26.467Z,30.78
2022-11-02T12:30:04.313Z,31.06
2022-11-02T12:32:49.987Z,31.14
2022-11-02T12:35:49.684Z,30.97
2022-11-02T12:38:45.752Z,31.16
2022-11-02T12:41:15.608Z,30.76
2022-11-02T12:43:45.597Z,30.87
2022-11-02T12:46:38.000Z,31.19
2022-11-02T12:49:26.352Z,31.12
2022-11-02T12:52:01.386Z,31.28
2022-11-02T12:54:41.528Z,31.70
2022-11-02T12:57:14.156Z,31.50
2022-11-02T12:59:45.038Z,31.57
2022-11-02T13:02:17.335Z,30.95
2022-11-02T13:04:53.232Z,31.30
2022-11-02T13:07:28.846Z,30.87
2022-11-02T13:10:04.131Z,30.68
2022-11-02T13:12:35.129Z,31.39
2022-11-02T13:15:07.926Z,31.01
2022-11-02T13:17:41.932Z,31.13
2022-11-02T13:20:17.838Z,31.38
2022-11-02T13:22:51.210Z,31.19
2022-11-02T13:25:23.276Z,30.87
2022-11-02T13:27:55.339Z,31.53
2022-11-02T13:30:23.199Z,31.21
2022-11-02T13:32:55.662Z,31.06
2022-11-02T13:35:33.194Z,31.17
2022-11-02T13:38:07.388Z,31.51
2022-11-02T13:40:40.639Z,31.44
2022-11-02T13:43:28.750Z,31.16
2022-11-02T13:46:14.434Z,31.29
2022-11-02T13:49:06.157Z,31.08
2022-11-02T13:51:40.050Z,31.05
2022-11-02T13:54:16.246Z,31.34
2022-11-02T13:56:45.138Z,31.75
2022-11-02T13:59:22.654Z,31.48
2022-11-02T14:01:53.844Z,31.83
2022-11-02T14:04:22.589Z,31.51
2022-11-02T14:06:56.450Z,31.83
2022-11-02T14:09:29.396Z,32.03
2022-11-02T14:12:29.596Z,31.54
2022-11-02T14:15:44.937Z,31.67
2022-11-02T14:18:15.040Z,32.19
2022-11-02T14:20:44.508Z,31.70
2022-11-02T14:23:41.671Z,31.20
2022-11-02T14:26:32.448Z,31.61
2022-11-02T14:29:00.905Z,31.29
2022-11-02T14:31:46.348Z,31.02
2022-11-02T14:34:40.360Z,30.98
2022-11-02T14:37:26.233Z,30.84
2022-11-02T14:40:04.478Z,31.41
2022-11-02T14:42:43.625Z,31.36
2022-11-02T14:45:40.021Z,31.63
2022-11-02T14:48:14.291Z,31.21
2022-11-02T14:50:42.163Z,31.46
2022-11-02T14:53:23.145Z,31.15
2022-11-02T14:55:56.630Z,31.82
2022-11-02T14:58:28.150Z,31.97
2022-11-02T15:00:59.538Z,31.39
2022-11-02T15:03:35.757Z,31.68
2022-11-02T15:06:06.966Z,31.96
2022-11-02T15:08:36.861Z,31.66
2022-11-02T15:11:42.128Z,31.77
2022-11-02T15:14:43.379Z,31.92
2022-11-02T15:17:44.516Z,32.01
2022-11-02T15:20:28.351Z,31.90
2022-11-02T15:22:59.548Z,31.59
2022-11-02T15:25:31.240Z,31.72
2022-11-02T15:28:06.778Z,31.78
2022-11-02T15:30:43.359Z,31.79
2022-11-02T15:33:21.236Z,31.76
2022-11-02T15:35:54.602Z,32.04
2022-11-02T15:38:33.777Z,31.65
2022-11-02T15:41:14.387Z,31.84
2022-11-02T15:46:39.985Z,31.89
2022-11-02T15:49:21.909Z,32.35
2022-11-02T15:51:59.851Z,31.82
2022-11-02T15:54:54.497Z,32.50
2022-11-02T15:57:35.269Z,31.91
2022-11-02T16:00:16.922Z,31.99
2022-11-02T16:02:50.119Z,31.92
2022-11-02T16:05:21.284Z,32.14
2022-11-02T16:10:40.499Z,32.28
2022-11-02T16:13:17.730Z,32.02
2022-11-02T16:15:49.651Z,32.11
2022-11-02T16:18:29.000Z,32.57
2022-11-02T16:21:00.652Z,32.55
2022-11-02T16:23:32.613Z,32.42
2022-11-02T16:26:02.404Z,32.23
2022-11-02T16:28:31.988Z,32.85
2022-11-02T16:31:15.708Z,32.67
2022-11-02T16:33:48.462Z,32.92
2022-11-02T16:36:18.611Z,32.38
2022-11-02T16:38:55.792Z,32.46
2022-11-02T16:41:26.737Z,32.87
2022-11-02T16:43:55.553Z,32.77
2022-11-02T16:46:30.924Z,32.06
2022-11-02T16:49:08.036Z,32.47
2022-11-02T16:51:35.944Z,32.63
2022-11-02T16:54:31.376Z,32.27
2022-11-02T16:57:08.626Z,32.82
2022-11-02T16:59:46.770Z,32.86
2022-11-02T17:02:16.031Z,32.76
2022-11-02T17:04:46.568Z,32.31
2022-11-02T17:07:21.420Z,32.13
2022-11-02T17:09:55.750Z,32.26
2022-11-02T17:12:30.476Z,32.14
2022-11-02T17:14:59.796Z,32.27
2022-11-02T17:17:40.103Z,32.35
2022-11-02T17:20:18.072Z,32.49
2022-11-02T17:22:52.534Z,31.87
2022-11-02T17:25:24.669Z,31.97
2022-11-02T17:27:53.719Z,32.35
2022-11-02T17:30:47.324Z,32.10
2022-11-02T17:33:25.465Z,31.73
2022-11-02T17:35:55.390Z,32.08
2022-11-02T17:38:26.843Z,32.19
2022-11-02T17:40:56.644Z,31.93
2022-11-02T17:43:23.933Z,32.08
2022-11-02T17:45:56.300Z,31.90
2022-11-02T17:48:25.362Z,32.46
2022-11-02T17:50:54.567Z,32.59
2022-11-02T17:53:23.737Z,32.23
2022-11-02T17:55:51.884Z,32.70
2022-11-02T17:58:21.116Z,31.90
2022-11-02T18:00:48.927Z,32.22
2022-11-02T18:03:21.668Z,32.70
2022-11-02T18:05:54.543Z,32.10
2022-11-02T18:08:25.197Z,32.25
2022-11-02T18:10:53.753Z,32.41
2022-11-02T18:13:25.153Z,32.33
2022-11-02T18:15:53.146Z,32.29
2022-11-02T18:18:20.876Z,32.33
2022-11-02T18:20:50.098Z,32.51
2022-11-02T18:23:19.811Z,32.53
2022-11-02T18:25:47.839Z,32.51
2022-11-02T18:28:15.742Z,32.68
2022-11-02T18:30:45.081Z,32.72
2022-11-02T18:33:14.021Z,32.98
2022-11-02T18:35:43.278Z,32.69
2022-11-02T18:38:11.684Z,32.51
2022-11-02T18:40:39.723Z,33.08
2022-11-02T18:43:07.959Z,32.65
2022-11-02T18:45:36.147Z,32.56
2022-11-02T18:48:05.656Z,33.02
2022-11-02T18:50:33.864Z,33.07
2022-11-02T18:53:01.615Z,33.13
2022-11-02T18:55:29.433Z,33.27
2022-11-02T18:57:57.200Z,33.34
2022-11-02T19:00:25.044Z,32.83
2022-11-02T19:02:52.896Z,32.96
2022-11-02T19:05:39.469Z,32.86
2022-11-02T19:08:24.688Z,32.88
2022-11-02T19:10:52.545Z,33.42
2022-11-02T19:13:20.332Z,33.38
2022-11-02T19:15:48.199Z,33.40
2022-11-02T19:18:16.032Z,33.07
2022-11-02T19:20:45.200Z,33.41
2022-11-02T19:23:13.044Z,32.98
2022-11-02T19:25:40.990Z,33.02
2022-11-02T19:28:09.028Z,33.42
2022-11-02T19:30:38.716Z,33.34
2022-11-02T19:33:06.861Z,33.18
2022-11-02T19:35:35.676Z,33.03
2022-11-02T19:38:04.809Z,33.11
2022-11-02T19:40:33.822Z,33.29
2022-11-02T19:43:01.653Z,33.33
2022-11-02T19:45:29.552Z,33.62
2022-11-02T19:47:57.430Z,33.84
2022-11-02T19:50:25.271Z,33.63
2022-11-02T19:52:53.120Z,33.48
2022-11-02T19:55:25.130Z,33.46
2022-11-02T19:57:52.981Z,33.84
2022-11-02T20:00:20.851Z,33.55
2022-11-02T20:02:50.634Z,33.91
2022-11-02T20:05:18.491Z,33.52
2022-11-02T20:07:46.300Z,33.60
2022-11-02T20:10:14.628Z,34.12
2022-11-02T20:12:43.808Z,33.48
2022-11-02T20:15:12.171Z,33.92
2022-11-02T20:17:58.436Z,33.90
2022-11-02T20:20:28.738Z,33.80
2022-11-02T20:22:56.716Z,33.76
2022-11-02T20:25:25.669Z,34.04
2022-11-02T20:27:57.585Z,33.88
2022-11-02T20:30:25.571Z,33.98
2022-11-02T20:32:53.381Z,34.07
2022-11-02T20:35:25.485Z,33.77
2022-11-02T20:37:54.847Z,33.71
2022-11-02T20:40:23.781Z,33.78
2022-11-02T20:42:51.816Z,33.99
2022-11-02T20:45:23.446Z,34.31
2022-11-02T20:47:52.022Z,34.12
2022-11-02T20:50:24.754Z,34.38
2022-11-02T20:52:55.348Z,34.11
2022-11-02T20:55:23.295Z,34.16
2022-11-02T20:57:51.245Z,34.20
2022-11-02T21:00:21.159Z,34.30
2022-11-02T21:02:49.492Z,34.25
2022-11-02T21:05:17.364Z,34.67
2022-11-02T21:07:45.300Z,34.83
2022-11-02T21:10:13.151Z,34.42
2022-11-02T21:12:58.704Z,34.38
2022-11-02T21:15:27.936Z,34.83
2022-11-02T21:17:56.124Z,34.81
2022-11-02T21:20:39.442Z,35.07
2022-11-02T21:23:08.085Z,35.25
2022-11-02T21:25:36.364Z,35.20
2022-11-02T21:28:04.639Z,34.88
2022-11-02T21:30:34.135Z,35.26
2022-11-02T21:33:02.171Z,35.06
2022-11-02T21:35:30.023Z,35.39
2022-11-02T21:38:01.288Z,35.06
2022-11-02T21:40:31.934Z,35.33
2022-11-02T21:43:01.746Z,35.58
2022-11-02T21:45:33.528Z,34.99
2022-11-02T21:48:06.111Z,35.13
2022-11-02T21:50:33.934Z,35.44
2022-11-02T21:53:01.737Z,35.31
2022-11-02T21:55:29.872Z,35.33
2022-11-02T21:57:57.741Z,35.52
2022-11-02T22:00:46.095Z,35.51
2022-11-02T22:03:14.457Z,35.12
2022-11-02T22:05:59.583Z,35.62
2022-11-02T22:08:39.663Z,35.31
2022-11-02T22:11:12.183Z,35.59
2022-11-02T22:13:41.870Z,35.13
2022-11-02T22:16:11.726Z,35.45
2022-11-02T22:18:42.141Z,35.36
2022-11-02T22:21:10.454Z,35.14
2022-11-02T22:23:38.516Z,35.59
2022-11-02T22:26:08.521Z,35.31
2022-11-02T22:28:39.115Z,35.05
2022-11-02T22:31:08.476Z,35.38
2022-11-02T22:33:37.180Z,35.10
2022-11-02T22:36:08.614Z,35.31
2022-11-02T22:38:48.237Z,35.32
2022-11-02T22:41:16.858Z,35.72
2022-11-02T22:43:44.659Z,35.61
2022-11-02T22:46:12.873Z,35.55
2022-11-02T22:48:40.749Z,35.80
2022-11-02T22:51:10.617Z,35.63
2022-11-02T22:53:38.874Z,35.51
2022-11-02T22:56:09.163Z,35.68
2022-11-02T22:58:38.151Z,35.54
2022-11-02T23:01:06.980Z,35.21
2022-11-02T23:03:36.214Z,35.60
2022-11-02T23:06:06.437Z,35.24
2022-11-02T23:08:37.669Z,35.51
2022-11-02T23:11:22.472Z,35.30
2022-11-02T23:13:53.013Z,35.53
2022-11-02T23:16:22.500Z,35.74
2022-11-02T23:19:09.326Z,35.50
2022-11-02T23:21:37.483Z,35.70
2022-11-02T23:24:25.383Z,35.75
2022-11-02T23:26:53.300Z,35.47
2022-11-02T23:29:38.332Z,35.75
2022-11-02T23:32:23.967Z,35.91
2022-11-02T23:35:09.409Z,35.33
2022-11-02T23:37:38.432Z,35.39
2022-11-02T23:40:09.272Z,35.93
2022-11-02T23:42:37.376Z,35.56
2022-11-02T23:45:05.662Z,35.99
2022-11-02T23:47:51.514Z,35.62
2022-11-02T23:50:34.974Z,35.97
2022-11-02T23:53:20.992Z,35.62
2022-11-02T23:56:08.759Z,36.11
2022-11-02T23:58:36.840Z,36.31
